Time;durP1;ratioP1;P1;durP2;ratioP2;P2;SDS_P1;SDS_P2;PMS_P1;PMS_P2;Temp;Humidity;BMP_temperature;BMP_pressure;BME280_temperature;BME280_humidity;BME280_pressure;Samples;Min_cycle;Max_cycle;Signal;HPM_P1;HPM_P2
2021/12/07 00:01:20;;;;;;;3.77;3.00;;;;;;;;;;5074133;28;20532;-77
2021/12/07 00:03:47;;;;;;;5.17;2.97;;;;;;;;;;5072999;28;20445;-74
2021/12/07 00:06:15;;;;;;;5.10;3.30;;;;;;;;;;5074030;28;20521;-74
2021/12/07 00:08:42;;;;;;;5.33;3.37;;;;;;;;;;5073410;28;20529;-73
2021/12/07 00:11:10;;;;;;;3.43;2.70;;;;;;;;;;5073371;28;20481;-74
2021/12/07 00:13:39;;;;;;;3.50;2.60;;;;;;;;;;5073321;28;20453;-75
2021/12/07 00:16:09;;;;;;;4.93;3.37;;;;;;;;;;5072772;28;20951;-75
2021/12/07 00:18:37;;;;;;;3.37;3.00;;;;;;;;;;5073812;28;20426;-74
2021/12/07 00:21:04;;;;;;;3.40;3.10;;;;;;;;;;5073119;28;20463;-75
2021/12/07 00:23:32;;;;;;;4.17;2.60;;;;;;;;;;5073516;28;20446;-73
2021/12/07 00:25:59;;;;;;;4.10;2.83;;;;;;;;;;5072705;28;20462;-77
2021/12/07 00:28:26;;;;;;;3.93;3.00;;;;;;;;;;5073056;28;21017;-74
2021/12/07 00:30:55;;;;;;;3.67;2.80;;;;;;;;;;5073006;28;20461;-75
2021/12/07 00:33:37;;;;;;;3.40;2.60;;;;;;;;;;5073465;28;20442;-75
2021/12/07 00:36:04;;;;;;;4.30;3.10;;;;;;;;;;5072681;28;20527;-75
2021/12/07 00:38:32;;;;;;;3.40;2.70;;;;;;;;;;5073082;28;20438;-73
2021/12/07 00:41:01;;;;;;;4.93;3.10;;;;;;;;;;5072742;28;20446;-75
2021/12/07 00:43:29;;;;;;;3.33;2.73;;;;;;;;;;5073215;28;20485;-74
2021/12/07 00:45:58;;;;;;;4.47;2.87;;;;;;;;;;5072401;28;20473;-74
2021/12/07 00:48:26;;;;;;;6.37;2.83;;;;;;;;;;5073241;28;20444;-77
2021/12/07 00:50:56;;;;;;;4.57;2.30;;;;;;;;;;5072123;28;20951;-75
2021/12/07 00:53:24;;;;;;;3.90;2.10;;;;;;;;;;5052716;28;20442;-71
2021/12/07 00:55:52;;;;;;;2.90;2.53;;;;;;;;;;5052325;28;20446;-75
2021/12/07 00:58:22;;;;;;;4.30;3.10;;;;;;;;;;5052927;28;20450;-74
2021/12/07 01:00:51;;;;;;;4.20;2.80;;;;;;;;;;5051843;28;20461;-73
2021/12/07 01:03:18;;;;;;;3.97;2.13;;;;;;;;;;5052936;28;20450;-76
2021/12/07 01:05:50;;;;;;;3.80;2.80;;;;;;;;;;5052892;28;20533;-76
2021/12/07 01:08:50;;;;;;;3.50;2.70;;;;;;;;;;5053013;28;20794;-76
2021/12/07 01:25:00;;;;;;;3.37;3.07;;;;;;;;;;5071572;28;20539;-76
2021/12/07 01:27:27;;;;;;;3.73;3.07;;;;;;;;;;5072428;28;20437;-75
2021/12/07 01:30:05;;;;;;;5.17;3.20;;;;;;;;;;5071885;28;20488;-75
2021/12/07 01:32:47;;;;;;;3.77;2.63;;;;;;;;;;5072013;28;20437;-75
2021/12/07 01:38:20;;;;;;;3.60;2.90;;;;;;;;;;5071484;28;20460;-75
2021/12/07 01:41:04;;;;;;;3.30;2.90;;;;;;;;;;5072245;28;20524;-76
2021/12/07 01:44:06;;;;;;;3.43;2.27;;;;;;;;;;5071817;28;20477;-76
2021/12/07 01:46:48;;;;;;;3.80;2.77;;;;;;;;;;5072219;28;20459;-75
2021/12/07 01:52:27;;;;;;;3.13;2.40;;;;;;;;;;5071355;28;20421;-76
2021/12/07 01:59:31;;;;;;;2.80;2.30;;;;;;;;;;5071514;28;20456;-75
2021/12/07 02:00:45;;;;;;;3.30;2.07;;;;;;;;;;5071266;28;20447;-76
2021/12/07 02:03:12;;;;;;;4.10;2.57;;;;;;;;;;5071067;28;20444;-76
2021/12/07 02:05:39;;;;;;;3.27;2.57;;;;;;;;;;5071572;28;20437;-74
2021/12/07 02:08:07;;;;;;;4.47;3.20;;;;;;;;;;5071150;28;20537;-74
2021/12/07 02:10:36;;;;;;;3.23;2.77;;;;;;;;;;5071590;28;20865;-75
2021/12/07 02:13:06;;;;;;;3.13;2.50;;;;;;;;;;5071028;28;20461;-75
2021/12/07 02:15:34;;;;;;;2.70;2.13;;;;;;;;;;5071583;28;20441;-73
2021/12/07 02:18:01;;;;;;;3.73;3.40;;;;;;;;;;5070850;28;20564;-75
2021/12/07 02:20:30;;;;;;;3.43;2.97;;;;;;;;;;5071514;28;20465;-74
2021/12/07 02:22:59;;;;;;;4.37;3.20;;;;;;;;;;5070989;28;20517;-75
2021/12/07 02:25:28;;;;;;;3.67;2.77;;;;;;;;;;5071194;28;20441;-74
2021/12/07 02:27:55;;;;;;;3.87;3.50;;;;;;;;;;5070468;28;20441;-74
2021/12/07 02:30:23;;;;;;;3.10;2.53;;;;;;;;;;5071448;28;20438;-74
2021/12/07 02:32:52;;;;;;;2.77;2.13;;;;;;;;;;5071304;28;20533;-74
2021/12/07 02:35:24;;;;;;;2.70;2.23;;;;;;;;;;5071350;28;20480;-74
2021/12/07 02:37:51;;;;;;;3.03;2.43;;;;;;;;;;5071323;28;20580;-73
2021/12/07 02:40:20;;;;;;;4.90;3.50;;;;;;;;;;5071065;28;20455;-73
2021/12/07 02:42:47;;;;;;;2.63;1.80;;;;;;;;;;5070996;28;20452;-73
2021/12/07 02:45:15;;;;;;;3.87;2.93;;;;;;;;;;5070724;28;20806;-73
2021/12/07 02:47:42;;;;;;;5.43;2.70;;;;;;;;;;5071300;28;20905;-73
2021/12/07 02:50:10;;;;;;;2.87;2.10;;;;;;;;;;5070417;28;20461;-74
2021/12/07 02:52:37;;;;;;;2.50;2.30;;;;;;;;;;5071312;28;20449;-73
2021/12/07 02:55:05;;;;;;;3.20;2.13;;;;;;;;;;5070245;28;20441;-73
2021/12/07 02:57:34;;;;;;;3.60;2.63;;;;;;;;;;5071236;28;20560;-73
2021/12/07 03:00:07;;;;;;;4.50;2.73;;;;;;;;;;5070245;28;20995;-74
2021/12/07 03:02:41;;;;;;;2.50;2.00;;;;;;;;;;5071008;28;20438;-74
2021/12/07 03:05:18;;;;;;;2.70;1.97;;;;;;;;;;5070303;28;20433;-74
2021/12/07 03:08:04;;;;;;;2.50;1.73;;;;;;;;;;5071004;28;20445;-71
2021/12/07 03:27:02;;;;;;;2.10;1.37;;;;;;;;;;5070267;28;20916;-73
2021/12/07 03:29:30;;;;;;;2.50;1.53;;;;;;;;;;5070914;28;20865;-74
2021/12/07 03:31:57;;;;;;;1.93;1.70;;;;;;;;;;5070150;28;20520;-73
2021/12/07 03:34:24;;;;;;;1.80;1.40;;;;;;;;;;5070807;28;20446;-74
2021/12/07 03:36:52;;;;;;;1.90;1.53;;;;;;;;;;5070789;28;20990;-74
2021/12/07 03:39:19;;;;;;;3.00;1.57;;;;;;;;;;5069987;28;20937;-74
2021/12/07 03:41:46;;;;;;;1.83;1.50;;;;;;;;;;5070514;28;20508;-74
2021/12/07 03:44:13;;;;;;;2.20;1.60;;;;;;;;;;5072397;28;20469;-73
2021/12/07 03:46:42;;;;;;;1.97;1.20;;;;;;;;;;5074267;28;20778;-72
2021/12/07 03:49:10;;;;;;;1.90;1.50;;;;;;;;;;5073670;28;20472;-73
2021/12/07 03:51:37;;;;;;;1.40;1.20;;;;;;;;;;5073950;28;20541;-73
2021/12/07 03:54:05;;;;;;;4.50;1.83;;;;;;;;;;5073304;28;20441;-73
2021/12/07 03:56:32;;;;;;;3.57;1.70;;;;;;;;;;5073883;28;20850;-74
2021/12/07 03:58:59;;;;;;;5.13;1.50;;;;;;;;;;5073203;28;20437;-73
2021/12/07 04:01:27;;;;;;;3.43;1.30;;;;;;;;;;5074118;28;20451;-73
2021/12/07 04:03:56;;;;;;;3.10;1.67;;;;;;;;;;5073920;28;20456;-74
2021/12/07 04:06:23;;;;;;;2.70;1.37;;;;;;;;;;5073686;28;20437;-74
2021/12/07 04:08:50;;;;;;;1.27;1.17;;;;;;;;;;5073765;28;20452;-74
2021/12/07 04:11:18;;;;;;;1.87;1.30;;;;;;;;;;5073110;28;20442;-73
2021/12/07 04:13:46;;;;;;;2.00;1.50;;;;;;;;;;5073546;28;20882;-75
2021/12/07 04:16:13;;;;;;;1.77;1.40;;;;;;;;;;5072983;28;20942;-74
2021/12/07 04:18:41;;;;;;;2.10;1.10;;;;;;;;;;5073632;28;20473;-74
2021/12/07 04:21:09;;;;;;;2.20;1.50;;;;;;;;;;5073183;28;20472;-73
2021/12/07 04:23:37;;;;;;;5.33;1.63;;;;;;;;;;5073295;28;20454;-74
2021/12/07 04:26:05;;;;;;;4.43;1.80;;;;;;;;;;5072480;28;20922;-74
2021/12/07 04:28:33;;;;;;;2.90;1.50;;;;;;;;;;5073322;28;21003;-74
2021/12/07 04:31:00;;;;;;;2.63;1.63;;;;;;;;;;5073180;28;20452;-68
2021/12/07 04:33:29;;;;;;;3.53;1.30;;;;;;;;;;5073490;28;20468;-74
2021/12/07 04:35:56;;;;;;;2.47;1.27;;;;;;;;;;5073260;28;20848;-73
2021/12/07 04:38:25;;;;;;;2.30;1.17;;;;;;;;;;5072998;28;20476;-75
2021/12/07 04:40:52;;;;;;;1.10;1.00;;;;;;;;;;5073495;28;20529;-75
2021/12/07 04:43:20;;;;;;;1.60;1.30;;;;;;;;;;5072702;28;20488;-75
2021/12/07 04:45:57;;;;;;;2.13;1.50;;;;;;;;;;5077854;28;20516;-74
2021/12/07 04:59:21;;;;;;;3.20;1.57;;;;;;;;;;5072302;28;20403;-74
2021/12/07 05:01:49;;;;;;;3.20;1.43;;;;;;;;;;5073103;28;20437;-74
2021/12/07 05:04:20;;;;;;;1.77;1.20;;;;;;;;;;5072199;28;20867;-73
2021/12/07 05:06:50;;;;;;;3.37;1.07;;;;;;;;;;5072818;28;20794;-74
2021/12/07 05:12:24;;;;;;;5.20;1.90;;;;;;;;;;5050654;28;20887;-72
2021/12/07 05:14:59;;;;;;;2.93;1.63;;;;;;;;;;5072435;28;20916;-74
2021/12/07 05:17:44;;;;;;;2.47;1.50;;;;;;;;;;5059853;28;20591;-74
2021/12/07 05:26:11;;;;;;;2.77;1.60;;;;;;;;;;5052315;28;20397;-73
2021/12/07 05:39:36;;;;;;;1.87;1.30;;;;;;;;;;5050470;28;20433;-74
2021/12/07 05:42:05;;;;;;;4.00;1.90;;;;;;;;;;5066120;28;20435;-74
2021/12/07 05:44:32;;;;;;;1.43;1.07;;;;;;;;;;5051509;28;20557;-70
2021/12/07 05:47:00;;;;;;;2.90;1.47;;;;;;;;;;5052215;28;20452;-74
2021/12/07 05:49:27;;;;;;;5.70;1.60;;;;;;;;;;5054209;28;20873;-75
2021/12/07 05:51:54;;;;;;;1.77;1.10;;;;;;;;;;5063374;28;20999;-75
2021/12/07 05:54:21;;;;;;;5.53;2.63;;;;;;;;;;5070473;28;20444;-75
2021/12/07 05:56:48;;;;;;;5.33;1.93;;;;;;;;;;5071966;28;20434;-75
2021/12/07 05:59:17;;;;;;;7.23;3.93;;;;;;;;;;5071191;28;20496;-75
2021/12/07 06:01:44;;;;;;;3.93;1.80;;;;;;;;;;5071899;28;20446;-76
2021/12/07 06:04:11;;;;;;;2.20;1.70;;;;;;;;;;5071148;28;20525;-76
2021/12/07 06:06:38;;;;;;;2.97;1.60;;;;;;;;;;5071342;28;20524;-75
2021/12/07 06:09:06;;;;;;;5.17;1.83;;;;;;;;;;5068448;28;20465;-69
2021/12/07 06:11:33;;;;;;;2.27;1.50;;;;;;;;;;5051378;28;20442;-74
2021/12/07 06:14:00;;;;;;;2.40;1.37;;;;;;;;;;5051712;28;20454;-74
2021/12/07 06:16:31;;;;;;;2.77;1.80;;;;;;;;;;5050842;28;20450;-74
2021/12/07 06:18:58;;;;;;;2.77;1.87;;;;;;;;;;5051381;28;20477;-74
2021/12/07 06:21:28;;;;;;;2.73;2.17;;;;;;;;;;5069405;28;20894;-74
2021/12/07 06:23:56;;;;;;;3.43;1.70;;;;;;;;;;5071641;28;20425;-75
2021/12/07 06:26:23;;;;;;;2.90;1.87;;;;;;;;;;5070871;28;20464;-74
2021/12/07 06:28:50;;;;;;;4.73;1.90;;;;;;;;;;5071492;28;20545;-74
2021/12/07 06:31:17;;;;;;;3.30;1.90;;;;;;;;;;5070940;28;20442;-73
2021/12/07 06:33:46;;;;;;;4.10;1.50;;;;;;;;;;5071557;28;20437;-75
2021/12/07 06:36:14;;;;;;;2.70;2.27;;;;;;;;;;5071149;28;20456;-77
2021/12/07 06:38:42;;;;;;;6.83;1.90;;;;;;;;;;5071233;28;20480;-76
2021/12/07 06:41:09;;;;;;;7.90;1.80;;;;;;;;;;5070644;28;20445;-77
2021/12/07 06:43:37;;;;;;;3.87;1.70;;;;;;;;;;5071307;28;20563;-74
2021/12/07 06:46:04;;;;;;;2.40;1.53;;;;;;;;;;5071226;28;20499;-74
2021/12/07 06:48:31;;;;;;;2.13;1.90;;;;;;;;;;5070487;28;20461;-74
2021/12/07 06:51:00;;;;;;;7.90;3.53;;;;;;;;;;5070929;28;21017;-76
2021/12/07 06:53:27;;;;;;;6.93;2.33;;;;;;;;;;5070898;28;20448;-76
2021/12/07 06:55:55;;;;;;;5.43;1.90;;;;;;;;;;5071353;28;20527;-76
2021/12/07 06:58:22;;;;;;;3.33;2.00;;;;;;;;;;5070771;28;20999;-75
2021/12/07 07:00:49;;;;;;;2.83;2.20;;;;;;;;;;5071256;28;20440;-76
2021/12/07 07:03:16;;;;;;;2.23;2.03;;;;;;;;;;5070723;28;20498;-77
2021/12/07 07:05:43;;;;;;;3.03;1.60;;;;;;;;;;5071317;28;20520;-76
2021/12/07 07:08:12;;;;;;;9.53;2.20;;;;;;;;;;5070244;28;21024;-76
2021/12/07 07:10:39;;;;;;;2.80;1.60;;;;;;;;;;5070494;28;20940;-76
2021/12/07 07:13:06;;;;;;;8.67;2.03;;;;;;;;;;5071246;28;20452;-75
2021/12/07 07:15:33;;;;;;;3.00;1.80;;;;;;;;;;5070585;28;20441;-75
2021/12/07 07:18:01;;;;;;;8.53;3.30;;;;;;;;;;5071125;28;21004;-75
2021/12/07 07:20:28;;;;;;;5.03;2.83;;;;;;;;;;5073808;28;20464;-76
2021/12/07 07:22:55;;;;;;;3.40;2.37;;;;;;;;;;5074733;28;20441;-74
2021/12/07 07:25:24;;;;;;;3.37;1.87;;;;;;;;;;5074020;28;20936;-73
2021/12/07 07:27:51;;;;;;;3.13;1.97;;;;;;;;;;5074757;28;20840;-74
2021/12/07 07:30:19;;;;;;;3.23;1.93;;;;;;;;;;5073962;28;20468;-76
2021/12/07 07:32:47;;;;;;;2.73;2.27;;;;;;;;;;5074666;28;20453;-76
2021/12/07 07:35:15;;;;;;;5.47;2.10;;;;;;;;;;5073750;28;20556;-75
2021/12/07 07:37:43;;;;;;;5.13;2.07;;;;;;;;;;5074605;28;20445;-75
2021/12/07 07:40:12;;;;;;;2.37;1.70;;;;;;;;;;5074323;28;20445;-75
2021/12/07 07:42:40;;;;;;;5.10;1.90;;;;;;;;;;5074204;28;20453;-75
2021/12/07 07:45:08;;;;;;;2.50;1.57;;;;;;;;;;5074531;28;20476;-76
2021/12/07 07:47:35;;;;;;;2.60;1.60;;;;;;;;;;5073544;28;20535;-75
2021/12/07 07:50:03;;;;;;;4.63;2.03;;;;;;;;;;5074030;28;20524;-76
2021/12/07 07:52:30;;;;;;;6.13;2.47;;;;;;;;;;5073635;28;20864;-75
2021/12/07 07:54:57;;;;;;;2.33;1.47;;;;;;;;;;5074103;28;20459;-76
2021/12/07 07:57:24;;;;;;;3.40;1.67;;;;;;;;;;5073880;28;20925;-75
2021/12/07 07:59:53;;;;;;;4.43;1.90;;;;;;;;;;5074052;28;20534;-74
2021/12/07 08:02:20;;;;;;;3.77;1.70;;;;;;;;;;5073538;28;20441;-75
2021/12/07 08:04:47;;;;;;;2.60;1.70;;;;;;;;;;5073737;28;20457;-75
2021/12/07 08:07:14;;;;;;;10.03;2.50;;;;;;;;;;5073198;28;20472;-76
2021/12/07 08:09:42;;;;;;;6.53;1.50;;;;;;;;;;5073939;28;20529;-75
2021/12/07 08:12:09;;;;;;;3.77;2.27;;;;;;;;;;5073880;28;20804;-76
2021/12/07 08:14:36;;;;;;;3.27;1.90;;;;;;;;;;5073061;28;20452;-75
2021/12/07 08:17:05;;;;;;;1.97;1.50;;;;;;;;;;5073854;28;20437;-75
2021/12/07 08:19:33;;;;;;;1.50;1.40;;;;;;;;;;5073167;28;20829;-75
2021/12/07 08:22:00;;;;;;;6.93;1.60;;;;;;;;;;5073858;28;20474;-76
2021/12/07 08:24:27;;;;;;;5.60;1.50;;;;;;;;;;5073248;28;20784;-75
2021/12/07 08:26:54;;;;;;;6.63;1.77;;;;;;;;;;5073353;28;20959;-75
2021/12/07 08:29:21;;;;;;;2.20;1.53;;;;;;;;;;5072914;28;20758;-76
2021/12/07 08:31:49;;;;;;;3.87;2.23;;;;;;;;;;5073627;28;20789;-75
2021/12/07 08:34:17;;;;;;;3.40;1.80;;;;;;;;;;5072921;28;20452;-74
2021/12/07 08:36:44;;;;;;;4.00;1.33;;;;;;;;;;5073587;28;20530;-74
2021/12/07 08:39:12;;;;;;;4.07;1.53;;;;;;;;;;5073367;28;20495;-76
2021/12/07 08:41:39;;;;;;;4.40;2.43;;;;;;;;;;5072791;28;20518;-76
2021/12/07 08:44:07;;;;;;;3.87;1.80;;;;;;;;;;5073339;28;20483;-77
2021/12/07 08:46:34;;;;;;;3.23;1.70;;;;;;;;;;5072902;28;20445;-77
2021/12/07 08:49:02;;;;;;;3.20;1.73;;;;;;;;;;5072990;28;20453;-76
2021/12/07 08:51:31;;;;;;;2.63;1.50;;;;;;;;;;5072609;28;20519;-76
2021/12/07 08:54:04;;;;;;;3.93;2.03;;;;;;;;;;5073030;28;20520;-77
2021/12/07 09:02:01;;;;;;;2.40;1.10;;;;;;;;;;5072960;28;20948;-74
2021/12/07 09:04:28;;;;;;;3.13;1.50;;;;;;;;;;5072293;28;20872;-75
2021/12/07 09:06:57;;;;;;;5.20;2.10;;;;;;;;;;5072709;28;21016;-74
2021/12/07 09:09:24;;;;;;;8.00;1.90;;;;;;;;;;5071978;28;20536;-77
2021/12/07 09:11:51;;;;;;;2.93;1.53;;;;;;;;;;5072353;28;20445;-73
2021/12/07 09:14:18;;;;;;;4.83;1.70;;;;;;;;;;5072353;28;20475;-75
2021/12/07 09:16:46;;;;;;;2.77;1.80;;;;;;;;;;5072477;28;20445;-75
2021/12/07 09:19:13;;;;;;;6.13;1.70;;;;;;;;;;5072723;28;20480;-74
2021/12/07 09:21:41;;;;;;;6.33;1.73;;;;;;;;;;5072112;28;20537;-73
2021/12/07 09:24:10;;;;;;;8.23;1.60;;;;;;;;;;5072699;28;20452;-74
2021/12/07 09:26:37;;;;;;;3.33;1.00;;;;;;;;;;5071912;28;20445;-75
2021/12/07 09:29:05;;;;;;;6.13;1.30;;;;;;;;;;5072919;28;20449;-77
2021/12/07 09:31:33;;;;;;;4.07;1.10;;;;;;;;;;5072124;28;20442;-77
2021/12/07 09:34:00;;;;;;;5.60;1.33;;;;;;;;;;5072379;28;20507;-75
2021/12/07 09:36:27;;;;;;;4.40;1.30;;;;;;;;;;5072012;28;20446;-74
2021/12/07 09:38:54;;;;;;;1.63;1.53;;;;;;;;;;5075365;28;20891;-75
2021/12/07 09:41:23;;;;;;;7.43;1.80;;;;;;;;;;5070550;28;20442;-76
2021/12/07 09:43:51;;;;;;;4.47;1.67;;;;;;;;;;5071863;28;20550;-75
2021/12/07 09:46:19;;;;;;;1.30;1.10;;;;;;;;;;5071953;28;20441;-69
2021/12/07 09:48:46;;;;;;;2.40;1.20;;;;;;;;;;5072200;28;20536;-74
2021/12/07 09:51:16;;;;;;;7.20;1.47;;;;;;;;;;5072043;28;20449;-75
2021/12/07 09:53:43;;;;;;;7.10;1.70;;;;;;;;;;5071262;28;20454;-75
2021/12/07 09:56:11;;;;;;;5.30;1.23;;;;;;;;;;5071797;28;20529;-74
2021/12/07 09:58:40;;;;;;;4.23;1.30;;;;;;;;;;5071458;28;20473;-73
2021/12/07 10:01:08;;;;;;;4.87;1.50;;;;;;;;;;5072033;28;20499;-75
2021/12/07 10:03:36;;;;;;;5.70;1.60;;;;;;;;;;5071412;28;21033;-75
2021/12/07 10:06:03;;;;;;;3.43;1.40;;;;;;;;;;5071903;28;20555;-74
2021/12/07 10:08:30;;;;;;;1.97;1.40;;;;;;;;;;5071405;28;20441;-75
2021/12/07 10:10:59;;;;;;;3.77;1.17;;;;;;;;;;5071552;28;20533;-75
2021/12/07 10:13:28;;;;;;;6.03;1.87;;;;;;;;;;5071531;28;20455;-76
2021/12/07 10:15:57;;;;;;;2.00;1.17;;;;;;;;;;5071946;28;20770;-75
2021/12/07 10:18:25;;;;;;;2.20;1.20;;;;;;;;;;5070924;28;20952;-75
2021/12/07 10:20:53;;;;;;;4.90;1.17;;;;;;;;;;5071703;28;20473;-75
2021/12/07 10:23:29;;;;;;;3.63;1.60;;;;;;;;;;5051656;28;20453;-69
2021/12/07 10:25:57;;;;;;;1.83;1.53;;;;;;;;;;5051403;28;20446;-77
2021/12/07 10:28:29;;;;;;;2.63;1.40;;;;;;;;;;5051170;28;20469;-76
2021/12/07 10:30:58;;;;;;;5.57;1.37;;;;;;;;;;5051615;28;20525;-75
2021/12/07 10:33:34;;;;;;;1.60;1.00;;;;;;;;;;5051274;28;20438;-75
2021/12/07 10:36:09;;;;;;;4.13;1.40;;;;;;;;;;5051733;28;20426;-76
2021/12/07 10:38:37;;;;;;;3.70;1.30;;;;;;;;;;5051456;28;20470;-76
2021/12/07 10:41:05;;;;;;;2.93;1.27;;;;;;;;;;5051442;28;20480;-74
2021/12/07 10:43:43;;;;;;;1.37;0.90;;;;;;;;;;5051629;28;20511;-74
2021/12/07 10:46:25;;;;;;;4.47;1.57;;;;;;;;;;5052259;28;20525;-74
2021/12/07 10:49:08;;;;;;;2.63;1.00;;;;;;;;;;5052504;28;20510;-76
2021/12/07 10:51:35;;;;;;;1.80;0.97;;;;;;;;;;5059424;28;20528;-76
2021/12/07 10:54:02;;;;;;;2.90;1.10;;;;;;;;;;5075820;28;20441;-75
2021/12/07 10:56:30;;;;;;;8.53;1.93;;;;;;;;;;5075076;28;20452;-76
2021/12/07 10:59:01;;;;;;;1.43;0.80;;;;;;;;;;5075435;28;20991;-75
2021/12/07 11:01:32;;;;;;;8.17;1.10;;;;;;;;;;5075060;28;20558;-76
2021/12/07 11:04:14;;;;;;;1.87;1.50;;;;;;;;;;5076028;28;20997;-76
2021/12/07 11:06:56;;;;;;;2.97;1.60;;;;;;;;;;5074825;28;20445;-75
2021/12/07 11:09:24;;;;;;;2.67;1.20;;;;;;;;;;5074813;28;20480;-69
2021/12/07 11:12:06;;;;;;;2.63;0.87;;;;;;;;;;5074954;28;20481;-76
2021/12/07 11:14:39;;;;;;;1.90;1.20;;;;;;;;;;5074497;28;20429;-75
2021/12/07 11:17:08;;;;;;;6.00;1.60;;;;;;;;;;5075168;28;20425;-76
2021/12/07 11:19:36;;;;;;;3.70;1.17;;;;;;;;;;5082739;28;20485;-75
2021/12/07 11:22:03;;;;;;;2.53;0.93;;;;;;;;;;5097282;28;20429;-73
2021/12/07 11:24:40;;;;;;;2.13;0.90;;;;;;;;;;5094386;28;20497;-76
2021/12/07 11:30:00;;;;;;;2.20;0.90;;;;;;;;;;5076924;28;20481;-76
2021/12/07 11:32:28;;;;;;;2.97;1.30;;;;;;;;;;5075785;28;20554;-77
2021/12/07 11:34:55;;;;;;;2.57;1.00;;;;;;;;;;5074860;28;20451;-75
2021/12/07 11:37:23;;;;;;;3.80;1.80;;;;;;;;;;5074805;28;20453;-77
2021/12/07 11:39:54;;;;;;;3.37;1.13;;;;;;;;;;5074813;28;20484;-77
2021/12/07 11:42:22;;;;;;;2.37;1.50;;;;;;;;;;5075073;28;20453;-77
2021/12/07 11:44:52;;;;;;;1.57;0.80;;;3.20;24.30;;;;;;5074348;28;20572;-76
2021/12/07 11:47:26;;;;;;;1.93;0.63;;;7.00;99.90;;;;;;5075026;28;20531;-76
2021/12/07 11:49:53;;;;;;;4.13;1.17;;;6.90;99.90;;;;;;5074863;28;20979;-75
2021/12/07 11:52:20;;;;;;;1.70;1.10;;;7.00;99.90;;;;;;5074578;28;20536;-77
2021/12/07 11:54:47;;;;;;;3.10;1.30;;;6.80;99.90;;;;;;5073868;28;20529;-76
2021/12/07 11:57:19;;;;;;;2.03;1.00;;;6.80;99.90;;;;;;5074558;28;20475;-76
2021/12/07 11:59:49;;;;;;;4.40;1.40;;;6.80;99.90;;;;;;5074077;28;20518;-75
2021/12/07 12:02:18;;;;;;;2.90;1.10;;;6.70;99.90;;;;;;5074488;28;20433;-75
2021/12/07 12:04:46;;;;;;;7.87;1.57;;;6.70;99.90;;;;;;5073082;28;21093;-74
2021/12/07 12:07:13;;;;;;;5.20;1.60;;;6.60;99.90;;;;;;5074581;28;20445;-76
2021/12/07 12:09:46;;;;;;;0.90;0.77;;;6.60;99.90;;;;;;5073531;28;20537;-76
2021/12/07 12:12:23;;;;;;;1.83;0.90;;;6.70;1.00;;;;;;5074144;28;20449;-76
2021/12/07 12:14:59;;;;;;;2.40;1.30;;;6.90;1.00;;;;;;5073743;28;20457;-77
2021/12/07 12:17:37;;;;;;;3.53;1.20;;;6.80;1.00;;;;;;5074449;28;20458;-77
2021/12/07 12:20:22;;;;;;;1.30;0.90;;;6.90;99.90;;;;;;5074340;28;20556;-77
2021/12/07 12:22:56;;;;;;;3.50;1.23;;;7.00;1.00;;;;;;5073444;28;20437;-76
2021/12/07 12:25:27;;;;;;;5.60;1.40;;;7.30;1.00;;;;;;5074006;28;20422;-76
2021/12/07 12:27:57;;;;;;;3.83;1.60;;;7.30;99.90;;;;;;5073753;28;20845;-76
2021/12/07 12:30:26;;;;;;;2.63;1.07;;;7.00;99.90;;;;;;5073953;28;20440;-77
2021/12/07 12:32:56;;;;;;;2.20;1.00;;;6.90;99.90;;;;;;5073617;28;20444;-75
2021/12/07 12:35:34;;;;;;;3.43;1.00;;;6.90;99.90;;;;;;5076938;28;20450;-76
2021/12/07 12:38:01;;;;;;;8.73;1.40;;;6.90;99.90;;;;;;5076739;28;20425;-77
2021/12/07 12:40:32;;;;;;;4.80;1.30;;;7.00;99.90;;;;;;5072857;28;20481;-70
2021/12/07 12:43:03;;;;;;;3.40;1.33;;;7.00;99.90;;;;;;5073287;28;20921;-77
2021/12/07 12:45:34;;;;;;;4.27;1.17;;;7.00;99.90;;;;;;5073071;28;20452;-77
2021/12/07 12:48:03;;;;;;;6.17;1.30;;;7.20;99.90;;;;;;5073400;28;20981;-75
2021/12/07 12:50:33;;;;;;;4.07;1.33;;;7.40;99.90;;;;;;5072736;28;20545;-77
2021/12/07 12:53:03;;;;;;;7.17;1.37;;;7.90;99.90;;;;;;5072939;28;20929;-75
2021/12/07 12:55:38;;;;;;;4.77;1.00;;;8.10;99.90;;;;;;5072693;28;20524;-76
2021/12/07 12:58:09;;;;;;;4.10;1.50;;;;;;;;;;5073124;28;20906;-77
2021/12/07 13:00:55;;;;;;;3.43;1.27;;;;;;;;;;5072100;28;20580;-75
2021/12/07 13:03:22;;;;;;;3.00;1.20;;;;;;;;;;5072665;28;20456;-77
2021/12/07 13:05:59;;;;;;;1.70;1.03;;;;;;;;;;5071471;28;20796;-77
2021/12/07 13:08:26;;;;;;;8.40;1.20;;;;;;;;;;5071474;28;20445;-77
2021/12/07 13:10:58;;;;;;;4.63;1.63;;;;;;;;;;5071741;28;20878;-76
2021/12/07 13:13:27;;;;;;;3.10;1.30;;;;;;;;;;5072390;28;20445;-76
2021/12/07 13:15:55;;;;;;;3.13;0.90;;;;;;;;;;5070929;28;20441;-77
2021/12/07 13:18:23;;;;;;;2.70;1.10;;;;;;;;;;5072367;28;20496;-76
2021/12/07 13:20:51;;;;;;;2.30;1.17;;;;;;;;;;5071167;28;20483;-76
2021/12/07 13:23:19;;;;;;;2.30;1.40;;;;;;;;;;5071651;28;20445;-74
2021/12/07 13:25:48;;;;;;;3.90;1.00;;;;;;;;;;5071991;28;20446;-77
2021/12/07 13:28:21;;;;;;;7.83;1.50;;;;;;;;;;5070608;28;20521;-71
2021/12/07 13:31:20;;;;;;;1.70;1.13;;;;;;;;;;5071751;28;20445;-77
2021/12/07 13:33:51;;;;;;;2.90;0.93;;;;;;;;;;4996518;28;20499;-75
2021/12/07 13:36:38;;;;;;;4.13;1.30;;;;;;;;;;5058818;28;20446;-76
2021/12/07 13:39:27;;;;;;;2.50;1.07;;;;;;;;;;5071213;28;20525;-77
2021/12/07 13:41:57;;;;;;;2.47;0.90;;;;;;;;;;5071235;28;20441;-77
2021/12/07 13:44:25;;;;;;;2.50;1.10;;;;;;;;;;5071667;28;20472;-76
2021/12/07 13:46:53;;;;;;;1.03;0.90;;;8.00;99.90;;;;;;5071546;28;20453;-76
2021/12/07 13:49:22;;;;;;;4.97;1.30;;;;;;;;;;5071010;28;21008;-77
2021/12/07 13:51:49;;;;;;;2.43;1.17;;;;;;;;;;5071123;28;20540;-76
2021/12/07 13:54:17;;;;;;;5.47;1.47;;;;;;;;;;5071265;28;20460;-76
2021/12/07 13:56:44;;;;;;;2.43;1.10;;;;;;;;;;5070725;28;21000;-77
2021/12/07 13:59:13;;;;;;;3.83;1.83;;;;;;;;;;5071040;28;20972;-75
2021/12/07 14:01:43;;;;;;;2.47;1.77;;;;;;;;;;5069073;28;20556;-75
2021/12/07 14:04:10;;;;;;;3.90;1.87;;;;;;;;;;5068384;28;20449;-76
2021/12/07 14:06:38;;;;;;;2.30;1.30;;;;;;;;;;5070569;28;20502;-76
2021/12/07 14:09:07;;;;;;;5.90;1.50;;;;;;;;;;5071663;28;20446;-76
2021/12/07 14:11:34;;;;;;;2.27;1.40;;;;;;;;;;5070985;28;20545;-75
2021/12/07 14:14:02;;;;;;;4.10;1.60;;;;;;;;;;5063355;28;20595;-76
2021/12/07 14:16:29;;;;;;;2.00;1.37;;;;;;;;;;5070866;28;20511;-74
2021/12/07 14:18:57;;;;;;;2.93;1.43;;;;;;;;;;5070630;28;20499;-76
2021/12/07 14:21:24;;;;;;;4.00;1.53;;;;;;;;;;5061804;28;20481;-75
2021/12/07 14:24:02;;;;;;;5.60;1.60;;;;;;;;;;5070716;28;20533;-76
2021/12/07 14:26:29;;;;;;;6.03;3.80;;;;;;;;;;5070794;28;20467;-77
2021/12/07 14:29:02;;;;;;;3.47;1.73;;;;;;;;;;5070607;28;20477;-75
2021/12/07 14:31:30;;;;;;;3.27;1.40;;;;;;;;;;5071230;28;20460;-76
2021/12/07 14:33:58;;;;;;;4.30;1.20;;;;;;;;;;5070604;28;20445;-76
2021/12/07 14:36:27;;;;;;;2.40;1.30;;;;;;;;;;5070180;28;20881;-77
2021/12/07 14:38:57;;;;;;;6.17;2.17;;;;;;;;;;5070244;28;20541;-74
2021/12/07 14:41:26;;;;;;;4.60;1.13;;;;;;;;;;5069978;28;20548;-77
2021/12/07 14:43:54;;;;;;;7.90;2.43;;;;;;;;;;5065078;28;20573;-76
2021/12/07 14:46:22;;;;;;;2.10;0.90;;;;;;;;;;5071227;28;20434;-76
2021/12/07 14:48:50;;;;;;;4.83;1.37;;;;;;;;;;5070587;28;20449;-75
2021/12/07 14:51:19;;;;;;;2.00;1.00;;;;;;;;;;5056061;28;20449;-76
2021/12/07 14:53:47;;;;;;;1.20;0.80;;;;;;;;;;5070622;28;20528;-75
2021/12/07 14:56:17;;;;;;;3.47;1.30;;;;;;;;;;5071042;28;20859;-77
2021/12/07 14:58:44;;;;;;;1.07;0.97;;;;;;;;;;5070483;28;20448;-76
2021/12/07 15:01:13;;;;;;;2.67;1.73;;;;;;;;;;5071006;28;20572;-74
2021/12/07 15:03:41;;;;;;;4.87;1.40;;;;;;;;;;5070619;28;20446;-75
2021/12/07 15:06:09;;;;;;;3.97;1.20;;;;;;;;;;5066460;28;20452;-75
2021/12/07 15:08:37;;;;;;;3.47;1.17;;;;;;;;;;5053869;28;20529;-75
2021/12/07 15:11:05;;;;;;;3.30;1.47;;;;;;;;;;5050807;28;20617;-76
2021/12/07 15:13:34;;;;;;;2.73;1.00;;;;;;;;;;5050196;28;20446;-70
2021/12/07 15:16:02;;;;;;;1.70;0.90;;;;;;;;;;5050810;28;20504;-77
2021/12/07 15:18:30;;;;;;;4.47;1.50;;;;;;;;;;5050565;28;20446;-78
2021/12/07 15:20:57;;;;;;;5.50;2.50;;;;;;;;;;5065582;28;20861;-74
2021/12/07 15:23:25;;;;;;;1.80;1.60;;;;;;;;;;5070775;28;20445;-76
2021/12/07 15:25:53;;;;;;;8.30;2.37;;;;;;;;;;5070214;28;20453;-76
2021/12/07 15:28:20;;;;;;;3.30;1.63;;;;;;;;;;5070414;28;20528;-75
2021/12/07 15:30:49;;;;;;;8.03;1.43;;;;;;;;;;5068616;28;20489;-75
2021/12/07 15:33:17;;;;;;;2.67;1.50;;;;;;;;;;5070079;28;20448;-74
2021/12/07 15:35:44;;;;;;;4.17;1.70;;;;;;;;;;5070231;28;20441;-75
2021/12/07 15:38:13;;;;;;;7.07;1.97;;;;;;;;;;5070271;28;20792;-75
2021/12/07 15:40:41;;;;;;;2.93;2.20;;;;;;;;;;5072902;28;20487;-75
2021/12/07 15:43:08;;;;;;;4.00;1.80;;;;;;;;;;5074154;28;20468;-74
2021/12/07 15:45:36;;;;;;;6.77;1.63;;;;;;;;;;5073715;28;20442;-71
2021/12/07 15:48:05;;;;;;;3.60;2.20;;;;;;;;;;5074570;28;20528;-75
2021/12/07 15:50:34;;;;;;;3.23;1.60;;;;;;;;;;5086652;28;20443;-75
2021/12/07 15:53:05;;;;;;;7.77;2.23;;;;;;;;;;5094940;28;20469;-73
2021/12/07 15:55:33;;;;;;;6.80;2.13;;;;;;;;;;5082502;28;20477;-75
2021/12/07 15:58:02;;;;;;;10.37;2.20;;;;;;;;;;5074796;28;20469;-75
2021/12/07 16:00:31;;;;;;;11.93;2.77;;;;;;;;;;5074251;28;20564;-74
2021/12/07 16:03:01;;;;;;;3.03;2.53;;;;;;;;;;5073662;28;20445;-77
2021/12/07 16:05:34;;;;;;;3.27;2.20;;;;;;;;;;5073887;28;20453;-75